Time;durP1;ratioP1;P1;durP2;ratioP2;P2;SDS_P1;SDS_P2;PMS_P1;PMS_P2;Temp;Humidity;BMP_temperature;BMP_pressure;BME280_temperature;BME280_humidity;BME280_pressure;Samples;Min_cycle;Max_cycle;Signal;HPM_P1;HPM_P2
2021/09/17 00:02:20;;;;;;;5.43;4.43;;;19.00;52.80;;;;;;4915976;29;20171;-81
2021/09/17 00:04:46;;;;;;;5.22;4.65;;;19.00;52.80;;;;;;4916273;29;20510;-83
2021/09/17 00:07:11;;;;;;;5.63;4.78;;;19.00;52.80;;;;;;4917032;29;20586;-83
2021/09/17 00:09:37;;;;;;;5.88;4.68;;;19.00;52.80;;;;;;4915976;29;20545;-82
2021/09/17 00:12:03;;;;;;;5.75;4.90;;;19.00;52.80;;;;;;4916218;29;20154;-82
2021/09/17 00:14:29;;;;;;;5.50;4.65;;;19.00;52.80;;;;;;4900152;29;20254;-81
2021/09/17 00:16:55;;;;;;;5.18;4.38;;;19.00;52.80;;;;;;4917010;29;20242;-82
2021/09/17 00:19:20;;;;;;;5.20;4.38;;;19.00;52.80;;;;;;4917047;29;20197;-83
2021/09/17 00:21:46;;;;;;;5.50;4.50;;;19.00;52.90;;;;;;4915861;29;20167;-83
2021/09/17 00:24:12;;;;;;;5.30;4.78;;;19.10;52.90;;;;;;4931513;29;20218;-81
2021/09/17 00:26:37;;;;;;;6.18;4.80;;;19.10;53.00;;;;;;4915906;29;20194;-82
2021/09/17 00:29:03;;;;;;;5.00;4.28;;;19.00;52.90;;;;;;4917444;29;20194;-80
2021/09/17 00:31:28;;;;;;;5.85;4.35;;;19.00;52.90;;;;;;4915781;29;20170;-81
2021/09/17 00:33:54;;;;;;;5.78;4.78;;;19.00;52.90;;;;;;4915681;29;20245;-82
2021/09/17 00:36:20;;;;;;;5.43;4.72;;;19.10;52.90;;;;;;4915589;29;20162;-82
2021/09/17 00:38:45;;;;;;;5.70;4.90;;;19.00;52.90;;;;;;4915684;29;20579;-81
2021/09/17 00:41:11;;;;;;;5.35;4.47;;;19.00;53.00;;;;;;4915690;29;20170;-82
2021/09/17 00:43:38;;;;;;;5.60;4.80;;;19.00;53.00;;;;;;4917064;29;20318;-82
2021/09/17 00:46:04;;;;;;;5.93;4.70;;;19.00;52.90;;;;;;4899991;29;20173;-82
2021/09/17 00:48:29;;;;;;;6.18;4.80;;;19.10;53.10;;;;;;4899535;29;20194;-84
2021/09/17 00:50:55;;;;;;;5.70;4.68;;;19.00;53.00;;;;;;4916709;29;20167;-80
2021/09/17 00:53:21;;;;;;;5.93;5.07;;;19.00;53.00;;;;;;4884273;29;20163;-82
2021/09/17 00:55:47;;;;;;;5.28;4.20;;;19.00;53.00;;;;;;4916718;29;20183;-81
2021/09/17 00:58:12;;;;;;;5.03;4.40;;;19.00;53.00;;;;;;4899771;29;20170;-81
2021/09/17 01:00:38;;;;;;;5.82;4.80;;;19.00;53.10;;;;;;4899780;29;20261;-81
2021/09/17 01:03:03;;;;;;;5.05;4.55;;;19.00;53.10;;;;;;4899690;29;20261;-81
2021/09/17 01:05:29;;;;;;;5.28;4.72;;;19.00;53.10;;;;;;4900930;29;20171;-83
2021/09/17 01:07:55;;;;;;;5.88;4.95;;;19.00;53.10;;;;;;4903046;29;20221;-81
2021/09/17 01:10:20;;;;;;;5.80;4.80;;;19.00;53.20;;;;;;4903203;29;20532;-82
2021/09/17 01:12:46;;;;;;;5.13;4.38;;;19.00;53.10;;;;;;4919981;29;20533;-81
2021/09/17 01:15:12;;;;;;;5.97;5.00;;;19.00;53.10;;;;;;4903703;29;20166;-82
2021/09/17 01:17:40;;;;;;;5.93;4.80;;;19.00;53.20;;;;;;4920220;29;20170;-81
2021/09/17 01:20:07;;;;;;;5.97;4.60;;;19.00;53.20;;;;;;4903334;29;20249;-81
2021/09/17 01:22:33;;;;;;;6.00;4.75;;;19.00;53.20;;;;;;4902976;29;20689;-81
2021/09/17 01:24:59;;;;;;;5.28;4.30;;;19.00;53.20;;;;;;4902996;29;20294;-82
2021/09/17 01:27:25;;;;;;;6.50;4.68;;;19.00;53.20;;;;;;4902717;29;20195;-80
2021/09/17 01:29:51;;;;;;;6.05;4.97;;;19.00;53.20;;;;;;4902646;29;20623;-80
2021/09/17 01:32:17;;;;;;;5.30;4.70;;;19.00;53.20;;;;;;4902739;29;20163;-81
2021/09/17 01:34:42;;;;;;;6.10;4.75;;;19.00;53.20;;;;;;4887065;29;20166;-82
2021/09/17 01:37:08;;;;;;;5.30;4.47;;;19.00;53.20;;;;;;4887326;29;20614;-84
2021/09/17 01:39:33;;;;;;;5.68;4.70;;;19.00;53.20;;;;;;4902673;29;20523;-82
2021/09/17 01:41:59;;;;;;;6.03;4.85;;;19.00;53.20;;;;;;4887031;29;20163;-81
2021/09/17 01:44:25;;;;;;;5.82;4.68;;;19.00;53.20;;;;;;4902661;29;20237;-81
2021/09/17 01:46:51;;;;;;;5.35;4.68;;;19.10;53.30;;;;;;4902335;29;20163;-83
2021/09/17 01:49:16;;;;;;;5.70;4.90;;;19.00;53.30;;;;;;4907355;29;20223;-82
2021/09/17 01:51:42;;;;;;;6.00;4.68;;;19.00;53.30;;;;;;4918190;29;20181;-82
2021/09/17 01:54:07;;;;;;;5.50;4.65;;;19.00;53.30;;;;;;4919268;29;20171;-81
2021/09/17 01:56:33;;;;;;;5.30;4.47;;;19.00;53.30;;;;;;4918140;29;20170;-82
2021/09/17 01:58:59;;;;;;;5.72;4.63;;;19.00;53.30;;;;;;4917974;29;20622;-83
2021/09/17 02:01:26;;;;;;;5.95;4.78;;;19.00;53.30;;;;;;4918006;29;20163;-82
2021/09/17 02:03:51;;;;;;;5.72;4.75;;;19.00;53.30;;;;;;4917968;29;20245;-81
2021/09/17 02:06:19;;;;;;;5.90;4.90;;;19.00;53.30;;;;;;4917813;29;20242;-80
2021/09/17 02:08:45;;;;;;;5.72;4.55;;;19.00;53.30;;;;;;4918979;29;20712;-80
2021/09/17 02:11:11;;;;;;;5.22;4.50;;;19.00;53.30;;;;;;4918999;29;20186;-82
2021/09/17 02:13:36;;;;;;;5.78;4.53;;;19.00;53.30;;;;;;4917756;29;20162;-79
2021/09/17 02:16:02;;;;;;;5.32;4.50;;;19.00;53.40;;;;;;4917380;29;20162;-83
2021/09/17 02:18:28;;;;;;;5.15;4.47;;;19.00;53.50;;;;;;4901433;29;20178;-82
2021/09/17 02:20:54;;;;;;;5.50;4.50;;;19.00;53.40;;;;;;4917600;29;20214;-82
2021/09/17 02:23:19;;;;;;;5.00;4.35;;;19.00;53.50;;;;;;4917461;29;20565;-80
2021/09/17 02:25:45;;;;;;;5.30;4.55;;;19.00;53.40;;;;;;4917523;29;20254;-80
2021/09/17 02:28:11;;;;;;;6.25;4.63;;;19.00;53.50;;;;;;4918629;29;20238;-81
2021/09/17 02:30:36;;;;;;;5.55;4.30;;;18.90;53.50;;;;;;4917504;29;20207;-81
2021/09/17 02:33:02;;;;;;;5.00;4.30;;;19.00;53.50;;;;;;4901609;29;20230;-81
2021/09/17 02:35:28;;;;;;;5.70;4.70;;;19.00;53.50;;;;;;4917410;29;20163;-80
2021/09/17 02:37:53;;;;;;;5.50;4.88;;;19.00;53.50;;;;;;4917255;29;20170;-81
2021/09/17 02:40:19;;;;;;;5.43;4.72;;;19.00;53.50;;;;;;4917245;29;20167;-81
2021/09/17 02:42:45;;;;;;;5.50;4.68;;;18.90;53.40;;;;;;4917185;29;20198;-81
2021/09/17 02:45:11;;;;;;;5.93;5.13;;;19.00;53.50;;;;;;4901839;29;20170;-83
2021/09/17 02:47:37;;;;;;;5.78;4.72;;;19.00;53.50;;;;;;4918227;29;20191;-83
2021/09/17 02:50:03;;;;;;;4.88;4.07;;;19.00;53.50;;;;;;4916751;29;20241;-80
2021/09/17 02:52:29;;;;;;;5.43;4.80;;;19.00;53.50;;;;;;4917445;29;20171;-81
2021/09/17 02:54:54;;;;;;;6.38;4.80;;;19.00;53.50;;;;;;4917057;29;20170;-81
2021/09/17 02:57:20;;;;;;;5.90;4.70;;;19.00;53.50;;;;;;4917005;29;20214;-82
2021/09/17 02:59:46;;;;;;;5.70;4.80;;;19.00;53.50;;;;;;4916994;29;20178;-80
2021/09/17 03:02:12;;;;;;;5.55;4.88;;;19.00;53.50;;;;;;4916861;29;20162;-80
2021/09/17 03:04:38;;;;;;;5.35;4.70;;;19.00;53.50;;;;;;4916758;29;20182;-81
2021/09/17 03:07:03;;;;;;;5.50;4.80;;;19.00;53.50;;;;;;4918010;29;20163;-82
2021/09/17 03:09:29;;;;;;;5.75;4.63;;;19.00;53.30;;;;;;4916807;29;20163;-82
2021/09/17 03:11:55;;;;;;;5.95;4.38;;;19.00;52.90;;;;;;4917949;29;20169;-82
2021/09/17 03:14:21;;;;;;;4.97;4.40;;;18.90;52.70;;;;;;4917900;29;20230;-83
2021/09/17 03:16:47;;;;;;;4.97;4.13;;;19.00;52.50;;;;;;4916676;29;20185;-82
2021/09/17 03:19:12;;;;;;;4.80;4.13;;;19.00;52.40;;;;;;4916523;29;20167;-83
2021/09/17 03:21:38;;;;;;;4.88;4.10;;;19.00;52.30;;;;;;4916796;29;20643;-83
2021/09/17 03:24:04;;;;;;;4.30;3.83;;;19.00;52.10;;;;;;4916487;29;20242;-81
2021/09/17 03:26:29;;;;;;;4.60;3.90;;;18.90;52.00;;;;;;4916603;29;20229;-82
2021/09/17 03:28:56;;;;;;;4.57;3.92;;;18.90;51.90;;;;;;4931734;29;20538;-82
2021/09/17 03:31:21;;;;;;;4.53;3.78;;;19.00;51.90;;;;;;4916296;29;20163;-81
2021/09/17 03:33:48;;;;;;;4.60;3.83;;;18.90;51.90;;;;;;4916388;29;20171;-82
2021/09/17 03:36:14;;;;;;;4.18;3.65;;;18.90;52.00;;;;;;4916235;29;20507;-81
2021/09/17 03:38:39;;;;;;;4.38;3.65;;;18.90;51.70;;;;;;4916379;29;20173;-80
2021/09/17 03:41:06;;;;;;;4.25;3.70;;;18.80;51.70;;;;;;4901133;29;20158;-80
2021/09/17 03:43:32;;;;;;;3.78;3.35;;;18.90;51.70;;;;;;4916327;29;20233;-80
2021/09/17 03:45:58;;;;;;;4.07;3.58;;;18.90;51.50;;;;;;4916370;29;20649;-82
2021/09/17 03:48:24;;;;;;;4.18;3.40;;;18.90;51.60;;;;;;4916019;29;20186;-82
2021/09/17 03:50:49;;;;;;;4.82;3.83;;;18.90;51.50;;;;;;4915945;29;20222;-82
2021/09/17 03:53:15;;;;;;;4.30;3.78;;;18.90;51.60;;;;;;4916105;29;20643;-82
2021/09/17 03:55:41;;;;;;;4.57;3.90;;;18.90;51.50;;;;;;4916062;29;20170;-81
2021/09/17 03:58:06;;;;;;;4.32;3.70;;;18.90;51.40;;;;;;4932005;29;20182;-81
2021/09/17 04:00:32;;;;;;;3.88;3.30;;;18.90;51.20;;;;;;4915954;29;20564;-81
2021/09/17 04:02:58;;;;;;;4.63;3.58;;;18.90;51.50;;;;;;4917188;29;20194;-82
2021/09/17 04:05:24;;;;;;;4.45;3.65;;;18.80;51.20;;;;;;4917290;29;20167;-81
2021/09/17 04:07:49;;;;;;;4.35;3.78;;;18.90;51.40;;;;;;4917086;29;20709;-82
2021/09/17 04:10:16;;;;;;;4.18;3.65;;;18.90;51.40;;;;;;4900272;29;20171;-81
2021/09/17 04:12:42;;;;;;;3.90;3.35;;;18.90;51.30;;;;;;4900196;29;20181;-82
2021/09/17 04:15:08;;;;;;;3.75;3.33;;;18.90;51.20;;;;;;4917067;29;20572;-81
2021/09/17 04:17:34;;;;;;;4.00;3.47;;;18.90;51.30;;;;;;4900367;29;20594;-83
2021/09/17 04:20:00;;;;;;;3.97;3.58;;;18.90;51.30;;;;;;4917046;29;20205;-82
2021/09/17 04:22:25;;;;;;;4.30;3.58;;;18.90;51.20;;;;;;4915825;29;20332;-83
2021/09/17 04:24:53;;;;;;;4.10;3.55;;;18.80;51.30;;;;;;4917298;29;20570;-82
2021/09/17 04:27:20;;;;;;;4.22;3.58;;;18.90;51.10;;;;;;4915776;29;20162;-80
2021/09/17 04:29:46;;;;;;;3.92;3.50;;;18.90;51.40;;;;;;4915964;29;20155;-82
2021/09/17 04:32:11;;;;;;;4.10;3.35;;;18.80;50.90;;;;;;4916953;29;20238;-83
2021/09/17 04:34:37;;;;;;;4.10;3.38;;;18.90;51.10;;;;;;4899999;29;20642;-82
2021/09/17 04:37:03;;;;;;;3.58;3.20;;;18.80;51.20;;;;;;4916810;29;20167;-81
2021/09/17 04:39:29;;;;;;;4.57;3.85;;;18.90;51.00;;;;;;4915643;29;20175;-80
2021/09/17 04:41:54;;;;;;;3.42;3.10;;;18.90;51.20;;;;;;4919319;29;20551;-81
2021/09/17 04:44:20;;;;;;;3.83;3.25;;;18.90;50.80;;;;;;4920430;29;20167;-82
2021/09/17 04:46:46;;;;;;;3.90;3.50;;;18.90;51.00;;;;;;4920404;29;20532;-82
2021/09/17 04:49:11;;;;;;;3.83;3.42;;;18.90;51.10;;;;;;4919803;29;20250;-80
2021/09/17 04:51:37;;;;;;;3.80;3.00;;;18.90;51.30;;;;;;4904346;29;20581;-81
2021/09/17 04:54:03;;;;;;;4.10;3.45;;;18.80;51.00;;;;;;4901148;29;20220;-81
2021/09/17 04:56:29;;;;;;;3.70;3.20;;;18.90;51.00;;;;;;4900392;29;20169;-83
2021/09/17 04:58:55;;;;;;;3.70;3.22;;;18.80;51.00;;;;;;4900509;29;20199;-82
2021/09/17 05:01:20;;;;;;;3.78;3.15;;;18.90;50.90;;;;;;4884496;29;20168;-81
2021/09/17 05:03:47;;;;;;;3.60;3.20;;;18.90;50.80;;;;;;4884578;29;20172;-81
2021/09/17 05:06:13;;;;;;;3.90;3.22;;;18.90;50.70;;;;;;4899988;29;20152;-81
2021/09/17 05:08:39;;;;;;;3.65;3.10;;;18.90;50.80;;;;;;4900386;29;20190;-82
2021/09/17 05:11:04;;;;;;;3.50;3.17;;;18.90;51.00;;;;;;4898886;29;20155;-82
2021/09/17 05:13:30;;;;;;;3.45;3.15;;;18.90;51.00;;;;;;4900721;29;20529;-83
2021/09/17 05:15:56;;;;;;;4.05;3.22;;;18.90;50.80;;;;;;4900878;29;20471;-83
2021/09/17 05:18:23;;;;;;;3.40;3.10;;;18.90;50.60;;;;;;4900672;29;20172;-81
2021/09/17 05:20:49;;;;;;;5.03;3.10;;;18.80;50.80;;;;;;4899429;29;20715;-81
2021/09/17 05:23:15;;;;;;;3.47;3.13;;;18.90;50.60;;;;;;4899694;29;20203;-81
2021/09/17 05:25:41;;;;;;;3.67;3.28;;;18.80;50.60;;;;;;4925850;29;20546;-81
2021/09/17 05:28:06;;;;;;;3.85;3.20;;;18.90;50.20;;;;;;4918489;29;20191;-81
2021/09/17 05:30:32;;;;;;;3.30;2.95;;;18.90;50.70;;;;;;4918533;29;20162;-81
2021/09/17 05:32:57;;;;;;;3.85;3.45;;;18.90;50.70;;;;;;4918380;29;20577;-83
2021/09/17 05:35:23;;;;;;;3.50;3.13;;;18.90;50.70;;;;;;4919719;29;20159;-81
2021/09/17 05:37:49;;;;;;;3.40;3.10;;;18.90;50.70;;;;;;4902767;29;20189;-83
2021/09/17 05:40:15;;;;;;;4.40;3.33;;;18.80;50.60;;;;;;4918382;29;20600;-82
2021/09/17 05:42:40;;;;;;;3.78;3.10;;;18.90;50.40;;;;;;4918426;29;20678;-82
2021/09/17 05:45:07;;;;;;;3.88;3.38;;;18.80;50.40;;;;;;4918271;29;20181;-81
2021/09/17 05:47:32;;;;;;;3.60;3.30;;;18.90;50.60;;;;;;4918220;29;20190;-83
2021/09/17 05:49:58;;;;;;;3.65;3.20;;;18.90;50.40;;;;;;4909631;29;20229;-82
2021/09/17 05:52:24;;;;;;;3.72;3.15;;;18.90;50.30;;;;;;4902081;29;20167;-81
2021/09/17 05:54:49;;;;;;;3.58;3.20;;;18.90;50.10;;;;;;4919273;29;20186;-80
2021/09/17 05:57:15;;;;;;;3.67;3.15;;;18.90;50.10;;;;;;4902217;29;20162;-81
2021/09/17 05:59:41;;;;;;;3.92;3.28;;;18.90;50.10;;;;;;4919441;29;20167;-81
2021/09/17 06:02:08;;;;;;;3.50;3.20;;;18.90;50.30;;;;;;4902331;29;20618;-83
2021/09/17 06:04:34;;;;;;;3.33;3.00;;;18.90;50.00;;;;;;4902385;29;20169;-82
2021/09/17 06:07:00;;;;;;;3.60;3.20;;;18.90;50.10;;;;;;4900635;29;20170;-82
2021/09/17 06:09:26;;;;;;;4.32;3.40;;;18.90;50.60;;;;;;4884883;29;20584;-82
2021/09/17 06:11:52;;;;;;;4.57;3.80;;;18.90;50.80;;;;;;4917167;29;20159;-83
2021/09/17 06:14:18;;;;;;;3.80;3.40;;;18.80;50.70;;;;;;4900438;29;20187;-82
2021/09/17 06:16:44;;;;;;;4.07;3.45;;;18.90;51.10;;;;;;4917340;29;20155;-83
2021/09/17 06:19:09;;;;;;;4.80;3.30;;;18.90;50.90;;;;;;4884549;29;20189;-82
2021/09/17 06:21:35;;;;;;;4.43;3.75;;;18.90;51.00;;;;;;4901174;29;20166;-81
2021/09/17 06:24:01;;;;;;;4.05;3.65;;;18.90;51.00;;;;;;4886160;29;20171;-82
2021/09/17 06:26:31;;;;;;;4.95;3.20;;;18.90;50.90;;;;;;4902128;29;20174;-83
2021/09/17 06:28:59;;;;;;;5.20;4.20;;;18.80;50.70;;;;;;4902587;29;20242;-84
2021/09/17 06:31:26;;;;;;;3.97;3.47;;;18.90;51.20;;;;;;4901984;29;20159;-82
2021/09/17 06:33:51;;;;;;;3.80;3.40;;;18.90;50.90;;;;;;4901924;29;20165;-80
2021/09/17 06:36:17;;;;;;;4.97;3.85;;;18.90;50.70;;;;;;4901573;29;20254;-82
2021/09/17 06:38:43;;;;;;;3.97;3.58;;;19.00;51.10;;;;;;4885999;29;20197;-83
2021/09/17 06:41:08;;;;;;;4.53;3.45;;;18.90;50.70;;;;;;4901588;29;20195;-82
2021/09/17 06:43:34;;;;;;;4.10;3.42;;;18.90;50.90;;;;;;4901534;29;20502;-81
2021/09/17 06:46:00;;;;;;;5.38;3.67;;;18.90;50.90;;;;;;4901448;29;20167;-82
2021/09/17 06:48:26;;;;;;;4.57;3.65;;;18.90;50.70;;;;;;4901504;29;20213;-82
2021/09/17 06:50:51;;;;;;;4.35;3.67;;;18.90;51.00;;;;;;4916600;29;20283;-82
2021/09/17 06:53:17;;;;;;;4.65;3.88;;;18.90;51.00;;;;;;4901960;29;20185;-80
2021/09/17 06:55:43;;;;;;;4.15;3.60;;;18.90;51.10;;;;;;4901248;29;20183;-82
2021/09/17 06:58:08;;;;;;;4.40;3.88;;;18.90;51.10;;;;;;4916967;29;20182;-82
2021/09/17 07:00:35;;;;;;;4.13;3.38;;;18.90;51.10;;;;;;4901258;29;20185;-81
2021/09/17 07:03:01;;;;;;;4.50;3.67;;;18.90;50.90;;;;;;4916634;29;20159;-82
2021/09/17 07:05:28;;;;;;;4.60;3.88;;;18.90;51.10;;;;;;4932917;29;20234;-82
2021/09/17 07:08:05;;;;;;;4.03;3.45;;;18.90;51.30;;;;;;4917004;29;20191;-80
2021/09/17 07:10:32;;;;;;;3.95;3.20;;;18.90;51.10;;;;;;4917280;29;20513;-83
2021/09/17 07:12:58;;;;;;;4.60;3.80;;;18.90;51.20;;;;;;4917396;29;20197;-81
2021/09/17 07:15:24;;;;;;;4.30;3.50;;;18.90;51.30;;;;;;4917855;29;20191;-82
2021/09/17 07:17:49;;;;;;;4.45;3.65;;;18.90;51.20;;;;;;4916616;29;20175;-81
2021/09/17 07:20:15;;;;;;;4.10;3.70;;;18.90;51.00;;;;;;4916711;29;20163;-81
2021/09/17 07:22:41;;;;;;;4.45;3.85;;;18.90;51.40;;;;;;4901077;29;20174;-81
2021/09/17 07:25:07;;;;;;;4.60;3.90;;;18.90;51.10;;;;;;4917362;29;20169;-83
2021/09/17 07:27:32;;;;;;;4.55;3.70;;;19.00;51.40;;;;;;4918027;29;20170;-80
2021/09/17 07:29:58;;;;;;;5.00;4.07;;;18.90;51.40;;;;;;4917149;29;20159;-83
2021/09/17 07:32:24;;;;;;;4.32;3.58;;;18.90;51.60;;;;;;4917199;29;20163;-80
2021/09/17 07:34:50;;;;;;;4.60;3.90;;;18.90;51.60;;;;;;4917916;29;20198;-80
2021/09/17 07:37:15;;;;;;;4.18;3.60;;;18.90;51.70;;;;;;4918045;29;20623;-82
2021/09/17 07:39:41;;;;;;;4.53;3.60;;;18.80;51.60;;;;;;4916512;29;20218;-82
2021/09/17 07:42:07;;;;;;;4.78;3.85;;;18.90;51.60;;;;;;4917611;29;20291;-80
2021/09/17 07:44:34;;;;;;;4.70;3.80;;;18.90;51.60;;;;;;4901148;29;20171;-81
2021/09/17 07:47:01;;;;;;;5.13;4.00;;;18.90;51.70;;;;;;4917823;29;20163;-81
2021/09/17 07:49:26;;;;;;;4.88;3.80;;;18.80;51.80;;;;;;4913612;29;20230;-80
2021/09/17 07:51:52;;;;;;;4.50;3.78;;;18.90;51.80;;;;;;4900262;29;20701;-81
2021/09/17 07:54:18;;;;;;;4.50;3.63;;;18.90;51.70;;;;;;4917179;29;20167;-79
2021/09/17 07:56:44;;;;;;;4.45;3.67;;;18.90;51.70;;;;;;4885824;29;20173;-80
2021/09/17 07:59:10;;;;;;;4.47;3.90;;;18.90;51.70;;;;;;4900257;29;20174;-82
2021/09/17 08:01:36;;;;;;;4.38;3.85;;;18.90;51.80;;;;;;4900600;29;20677;-81
2021/09/17 08:04:01;;;;;;;4.78;3.70;;;18.90;51.60;;;;;;4900121;29;20646;-81
2021/09/17 08:06:27;;;;;;;4.63;3.80;;;18.90;51.60;;;;;;4884590;29;20634;-82
2021/09/17 08:08:53;;;;;;;5.07;3.80;;;18.90;51.80;;;;;;4899963;29;20614;-82
2021/09/17 08:11:18;;;;;;;5.53;3.53;;;18.90;51.60;;;;;;4915662;29;20179;-81
2021/09/17 08:13:44;;;;;;;4.32;3.78;;;19.00;51.60;;;;;;4900121;29;20191;-80
2021/09/17 08:16:10;;;;;;;4.53;3.88;;;18.90;51.80;;;;;;4920816;29;20171;-81
2021/09/17 08:18:35;;;;;;;4.82;4.03;;;18.90;51.90;;;;;;4903963;29;20174;-82
2021/09/17 08:21:01;;;;;;;4.57;3.60;;;18.90;52.00;;;;;;4904202;29;20159;-80
2021/09/17 08:23:27;;;;;;;4.65;4.13;;;18.90;52.00;;;;;;4904314;29;20175;-81
2021/09/17 08:25:55;;;;;;;5.70;4.30;;;18.90;52.00;;;;;;4888646;29;20171;-80
2021/09/17 08:28:22;;;;;;;4.53;3.95;;;18.90;52.00;;;;;;4921231;29;20676;-83
2021/09/17 08:30:49;;;;;;;5.13;3.92;;;18.90;52.00;;;;;;4921104;29;20159;-82
2021/09/17 08:33:14;;;;;;;4.97;3.75;;;18.90;51.90;;;;;;4904254;29;20556;-79
2021/09/17 08:35:40;;;;;;;4.70;4.10;;;18.90;52.10;;;;;;4904497;29;20178;-82
2021/09/17 08:38:05;;;;;;;5.32;4.10;;;18.90;52.10;;;;;;4904463;29;20258;-82
2021/09/17 08:40:31;;;;;;;5.15;3.67;;;18.90;52.10;;;;;;4904280;29;20189;-82
2021/09/17 08:43:00;;;;;;;4.72;3.90;;;18.90;52.10;;;;;;4888735;29;20171;-79
2021/09/17 08:45:26;;;;;;;4.57;3.90;;;18.90;52.00;;;;;;4904320;29;20637;-82
2021/09/17 08:47:52;;;;;;;4.85;4.07;;;18.90;52.10;;;;;;4888175;29;20290;-81
2021/09/17 08:50:18;;;;;;;5.00;3.83;;;19.00;52.10;;;;;;4898888;29;20387;-83
2021/09/17 08:52:44;;;;;;;6.20;4.28;;;19.00;52.10;;;;;;4919226;29;20586;-80
2021/09/17 08:55:10;;;;;;;4.70;3.88;;;19.00;52.10;;;;;;4919309;29;20167;-81
2021/09/17 08:57:36;;;;;;;4.40;3.63;;;18.90;52.10;;;;;;4920622;29;20558;-83
2021/09/17 09:00:03;;;;;;;5.25;4.00;;;19.00;52.10;;;;;;4919397;29;20167;-79
2021/09/17 09:02:29;;;;;;;4.55;3.67;;;18.90;52.10;;;;;;4919705;29;20155;-83
2021/09/17 09:05:01;;;;;;;4.85;3.90;;;19.00;52.20;;;;;;4919877;29;20606;-81
2021/09/17 09:07:31;;;;;;;4.90;4.13;;;19.00;52.20;;;;;;4918799;29;20234;-79
2021/09/17 09:10:11;;;;;;;4.13;3.60;;;19.00;52.20;;;;;;4904987;29;20171;-80
2021/09/17 09:12:43;;;;;;;7.30;3.83;;;18.90;52.00;;;;;;4920222;29;20636;-82
2021/09/17 09:15:14;;;;;;;4.55;3.65;;;18.90;52.20;;;;;;4919464;29;20166;-80
2021/09/17 09:17:41;;;;;;;5.38;4.03;;;18.90;52.00;;;;;;4919297;29;20163;-81
2021/09/17 09:20:29;;;;;;;4.53;3.67;;;19.00;52.00;;;;;;4918979;29;20159;-80
2021/09/17 09:23:15;;;;;;;4.38;3.63;;;19.00;51.80;;;;;;4920665;29;20174;-82
2021/09/17 09:25:58;;;;;;;4.97;3.95;;;19.00;51.90;;;;;;4920291;29;20188;-80
2021/09/17 09:28:30;;;;;;;4.80;3.92;;;19.00;51.90;;;;;;4919650;29;20183;-80
2021/09/17 09:30:57;;;;;;;4.45;3.80;;;18.90;52.50;;;;;;4919499;29;20159;-83
2021/09/17 09:33:30;;;;;;;4.43;3.63;;;19.00;51.90;;;;;;4918742;29;20155;-79
2021/09/17 09:35:58;;;;;;;4.82;3.65;;;19.00;51.90;;;;;;4919131;29;20260;-81
2021/09/17 09:38:29;;;;;;;4.97;4.07;;;19.00;51.90;;;;;;4918751;29;20619;-80
2021/09/17 09:40:58;;;;;;;4.85;3.92;;;19.00;51.70;;;;;;4918764;29;20159;-81
2021/09/17 09:43:28;;;;;;;4.80;3.97;;;19.00;51.60;;;;;;4919194;29;20170;-83
2021/09/17 09:45:55;;;;;;;4.70;3.70;;;19.00;51.80;;;;;;4920656;29;20186;-80
2021/09/17 09:48:21;;;;;;;4.60;3.88;;;19.00;51.70;;;;;;4918281;29;20246;-82
2021/09/17 09:50:46;;;;;;;4.25;3.58;;;19.00;51.70;;;;;;4918490;29;20230;-81
2021/09/17 09:53:15;;;;;;;4.57;3.72;;;19.00;51.70;;;;;;4902709;29;20171;-80
2021/09/17 09:55:40;;;;;;;4.85;3.60;;;19.00;51.70;;;;;;4918428;29;20147;-80
2021/09/17 09:58:06;;;;;;;4.32;3.38;;;18.90;51.70;;;;;;4919935;29;20163;-81
2021/09/17 10:00:32;;;;;;;4.60;3.65;;;19.00;51.60;;;;;;4902600;29;20182;-80
2021/09/17 10:02:57;;;;;;;4.28;3.55;;;19.00;51.60;;;;;;4903227;29;20175;-81
2021/09/17 10:05:26;;;;;;;4.78;3.70;;;19.00;51.50;;;;;;4902601;29;20179;-80
2021/09/17 10:07:51;;;;;;;4.50;3.50;;;19.00;51.70;;;;;;4918329;29;20195;-82
2021/09/17 10:10:17;;;;;;;4.97;4.00;;;19.00;51.40;;;;;;4902528;29;20242;-81
2021/09/17 10:12:43;;;;;;;4.45;3.72;;;19.00;51.70;;;;;;4917969;29;20163;-82
2021/09/17 10:15:10;;;;;;;4.18;3.28;;;19.00;51.70;;;;;;4918509;29;20534;-81
2021/09/17 10:17:38;;;;;;;4.15;3.60;;;19.00;51.50;;;;;;4902375;29;20178;-80
2021/09/17 10:20:06;;;;;;;4.93;3.85;;;19.00;51.40;;;;;;4917806;29;20159;-80
2021/09/17 10:22:34;;;;;;;4.43;3.65;;;18.90;51.30;;;;;;4918963;29;20158;-81
2021/09/17 10:25:09;;;;;;;5.22;4.10;;;19.00;51.30;;;;;;4919103;29;20155;-83
2021/09/17 10:27:36;;;;;;;4.65;3.78;;;19.10;51.40;;;;;;4903211;29;20171;-81
2021/09/17 10:30:03;;;;;;;4.40;3.40;;;19.00;51.40;;;;;;4917922;29;20158;-82
2021/09/17 10:32:34;;;;;;;4.85;3.83;;;19.00;51.80;;;;;;4917144;29;20159;-82
2021/09/17 10:35:18;;;;;;;4.55;3.53;;;19.00;51.40;;;;;;4902276;29;20179;-82
2021/09/17 10:38:15;;;;;;;3.92;3.42;;;19.00;51.10;;;;;;4916392;29;20179;-80
2021/09/17 10:40:54;;;;;;;4.70;3.72;;;19.00;51.20;;;;;;4917615;29;20163;-83
2021/09/17 10:43:22;;;;;;;4.30;3.60;;;19.00;50.90;;;;;;4919575;29;20165;-80
2021/09/17 10:45:53;;;;;;;4.18;3.28;;;19.00;50.70;;;;;;4917587;29;20170;-80
2021/09/17 10:48:24;;;;;;;4.80;3.80;;;19.00;51.30;;;;;;4916030;29;20194;-81
2021/09/17 10:51:00;;;;;;;4.28;3.47;;;19.00;51.00;;;;;;4897998;29;20230;-83
2021/09/17 10:53:56;;;;;;;4.85;3.75;;;19.00;51.00;;;;;;4898394;29;20231;-80
2021/09/17 10:56:22;;;;;;;4.63;3.50;;;19.00;50.90;;;;;;4898548;29;20198;-80
2021/09/17 10:59:09;;;;;;;4.53;3.50;;;19.00;50.90;;;;;;4882517;29;20199;-82
2021/09/17 11:01:48;;;;;;;4.93;3.83;;;19.00;50.90;;;;;;4898070;29;20155;-81
2021/09/17 11:04:28;;;;;;;4.25;3.60;;;19.00;51.00;;;;;;4898031;29;20175;-80
2021/09/17 11:06:55;;;;;;;4.15;3.60;;;19.00;50.60;;;;;;4882362;29;20175;-80
2021/09/17 11:09:52;;;;;;;4.13;3.28;;;19.00;50.70;;;;;;4897921;29;20243;-81
2021/09/17 11:12:21;;;;;;;5.00;3.70;;;19.00;50.60;;;;;;4913835;29;20570;-82
2021/09/17 11:15:08;;;;;;;4.45;3.58;;;19.00;50.50;;;;;;4882892;29;20171;-82
2021/09/17 11:17:40;;;;;;;4.75;3.67;;;19.00;50.70;;;;;;4882020;29;20619;-80
2021/09/17 11:20:08;;;;;;;4.22;3.40;;;19.00;50.70;;;;;;4911883;29;20175;-81
2021/09/17 11:23:06;;;;;;;4.90;3.88;;;19.00;50.50;;;;;;4916992;29;20576;-81
2021/09/17 11:25:42;;;;;;;4.28;3.40;;;19.00;50.50;;;;;;4917800;29;20205;-81
2021/09/17 11:28:29;;;;;;;4.07;3.13;;;19.00;50.30;;;;;;4918731;29;20242;-79
2021/09/17 11:31:15;;;;;;;4.47;3.80;;;19.00;50.30;;;;;;4917036;29;20242;-81
2021/09/17 11:33:41;;;;;;;3.92;3.20;;;19.00;50.30;;;;;;4916466;29;20206;-81
2021/09/17 11:36:07;;;;;;;4.25;3.63;;;19.00;50.10;;;;;;4917550;29;20151;-79
2021/09/17 11:38:32;;;;;;;4.05;3.17;;;19.00;50.00;;;;;;4916452;29;20173;-81
2021/09/17 11:40:58;;;;;;;4.90;3.70;;;19.00;50.00;;;;;;4885491;29;20167;-79
2021/09/17 11:43:24;;;;;;;5.13;3.72;;;19.10;50.30;;;;;;4884667;29;20186;-79
2021/09/17 11:45:51;;;;;;;4.68;3.60;;;19.10;50.00;;;;;;4885068;29;20167;-82
2021/09/17 11:48:21;;;;;;;5.32;3.58;;;19.10;50.20;;;;;;4917400;29;20258;-81
2021/09/17 11:50:47;;;;;;;4.43;3.50;;;19.10;50.90;;;;;;4915850;29;20222;-79
2021/09/17 11:53:13;;;;;;;4.38;3.65;;;19.10;50.10;;;;;;4900732;29;20259;-81
2021/09/17 11:55:39;;;;;;;4.63;3.42;;;19.20;50.30;;;;;;4900341;29;20222;-81
2021/09/17 11:58:05;;;;;;;4.43;3.78;;;19.10;50.40;;;;;;4884565;29;20174;-80
2021/09/17 12:00:31;;;;;;;4.35;3.35;;;19.10;50.60;;;;;;4916071;29;20174;-81
2021/09/17 12:03:02;;;;;;;4.22;3.47;;;19.00;50.70;;;;;;4912380;29;20579;-79
2021/09/17 12:05:29;;;;;;;4.03;3.45;;;19.10;50.90;;;;;;4880283;29;20163;-82
2021/09/17 12:07:55;;;;;;;4.68;3.42;;;19.00;51.00;;;;;;4895466;29;20222;-80
2021/09/17 12:10:31;;;;;;;3.80;3.28;;;19.00;51.00;;;;;;4879889;29;20604;-83
2021/09/17 12:13:00;;;;;;;4.20;3.40;;;19.00;51.10;;;;;;4880286;29;20171;-81
2021/09/17 12:15:27;;;;;;;4.43;3.53;;;19.00;51.10;;;;;;4879740;29;20251;-81
2021/09/17 12:18:01;;;;;;;3.92;3.42;;;19.00;51.20;;;;;;4896429;29;20243;-82
2021/09/17 12:20:45;;;;;;;4.68;4.00;;;19.00;51.30;;;;;;4881876;29;20171;-81
2021/09/17 12:23:13;;;;;;;4.60;3.83;;;19.00;51.40;;;;;;4898035;29;20160;-81
2021/09/17 12:25:39;;;;;;;4.63;3.97;;;19.00;51.50;;;;;;4882077;29;20170;-79
2021/09/17 12:28:07;;;;;;;4.60;3.60;;;18.90;51.50;;;;;;4866145;29;20195;-80
2021/09/17 12:30:34;;;;;;;5.20;3.60;;;19.00;51.50;;;;;;4866308;29;20163;-80
2021/09/17 12:33:21;;;;;;;4.40;3.55;;;19.00;51.50;;;;;;4881411;29;20639;-83
2021/09/17 12:35:48;;;;;;;4.45;3.65;;;19.00;51.50;;;;;;4898095;29;20184;-81
2021/09/17 12:38:15;;;;;;;4.28;3.50;;;19.00;51.50;;;;;;4896831;29;20172;-82
2021/09/17 12:40:42;;;;;;;4.30;3.53;;;19.00;51.40;;;;;;4881457;29;20518;-81
2021/09/17 12:43:12;;;;;;;4.20;3.45;;;19.00;51.50;;;;;;4896861;29;20176;-81
2021/09/17 12:45:40;;;;;;;4.35;3.38;;;19.00;51.50;;;;;;4866036;29;20174;-82
2021/09/17 12:48:06;;;;;;;4.32;3.40;;;19.00;51.60;;;;;;4881374;29;20663;-81
2021/09/17 12:50:39;;;;;;;5.18;3.50;;;19.00;51.60;;;;;;4868570;29;20240;-81